Wood Springs, Texas
Current Conditions -  °F | °C
As of 10:53 PM on Tuesday 25 Nov 2014 (Local Time) from KTYR Reporting Station
Clear Clear  
Wind Chill: 44°   Ceiling: Unl
Heat Index: 46°   Visibility: 10mi
Dew Point: 35°   Wind: 5mph
Humidity: 66%   Direction: 190°S
Pressure: 30.16"   Gusts: NA
Location:  32.5326°N, 95.4249°W
Report Text: KTYR 260453Z 19004KT 10SM CLR 08/02 A3016 RMK AO2 SLP213 T00780017
Loading
Personal Weather Stations






























Interactive Weather Map New forecast layout! Learn more

10-Day Weather Forecast

Advertisements
Track Severe Weather on mobile